createdAt,value
2023-01-25T00:00:31.000Z,8.55
2023-01-25T00:02:57.711Z,9.00
2023-01-25T00:05:24.653Z,8.48
2023-01-25T00:07:51.141Z,8.38
2023-01-25T00:10:20.275Z,10.13
2023-01-25T00:12:47.617Z,9.02
2023-01-25T00:15:14.461Z,9.82
2023-01-25T00:17:45.836Z,10.82
2023-01-25T00:20:12.330Z,8.60
2023-01-25T00:22:38.734Z,9.88
2023-01-25T00:25:05.958Z,9.25
2023-01-25T00:27:32.896Z,10.52
2023-01-25T00:30:01.703Z,8.80
2023-01-25T00:32:37.755Z,9.18
2023-01-25T00:35:04.703Z,9.07
2023-01-25T00:37:39.911Z,9.60
2023-01-25T00:40:06.821Z,9.65
2023-01-25T00:42:33.291Z,9.80
2023-01-25T00:44:59.676Z,9.23
2023-01-25T00:47:26.071Z,7.53
2023-01-25T00:49:52.662Z,10.05
2023-01-25T00:52:19.116Z,9.25
2023-01-25T00:54:48.621Z,10.20
2023-01-25T00:57:15.050Z,8.65
2023-01-25T00:59:44.554Z,8.32
2023-01-25T01:02:12.156Z,7.90
2023-01-25T01:04:38.780Z,7.55
2023-01-25T01:07:07.759Z,7.32
2023-01-25T01:09:34.184Z,8.60
2023-01-25T01:12:00.733Z,7.75
2023-01-25T01:14:29.487Z,8.88
2023-01-25T01:16:57.232Z,7.70
2023-01-25T01:19:24.910Z,8.32
2023-01-25T01:21:51.422Z,8.48
2023-01-25T01:24:18.137Z,8.20
2023-01-25T01:26:44.669Z,9.57
2023-01-25T01:29:11.200Z,8.48
2023-01-25T01:31:37.773Z,7.50
2023-01-25T01:34:04.439Z,9.93
2023-01-25T01:36:31.361Z,8.02
2023-01-25T01:39:01.157Z,9.82
2023-01-25T01:41:27.941Z,7.45
2023-01-25T01:43:54.721Z,7.28
2023-01-25T01:46:41.555Z,8.02
2023-01-25T01:49:31.948Z,7.88
2023-01-25T01:52:11.078Z,8.35
2023-01-25T01:54:43.579Z,9.70
2023-01-25T01:59:48.134Z,7.47
2023-01-25T02:02:15.001Z,9.07
2023-01-25T02:04:44.106Z,7.68
2023-01-25T02:07:27.567Z,6.80
2023-01-25T02:09:53.999Z,8.05
2023-01-25T02:12:23.508Z,7.38
2023-01-25T02:14:52.192Z,7.70
2023-01-25T02:17:26.483Z,6.55
2023-01-25T02:20:01.855Z,6.53
2023-01-25T02:22:47.924Z,8.25
2023-01-25T02:25:16.523Z,7.10
2023-01-25T02:27:50.910Z,7.75
2023-01-25T02:30:17.453Z,11.40
2023-01-25T02:32:43.910Z,11.27
2023-01-25T02:35:22.236Z,9.43
2023-01-25T02:37:49.504Z,8.52
2023-01-25T02:40:17.865Z,6.68
2023-01-25T02:42:45.476Z,5.85
2023-01-25T02:45:16.718Z,6.60
2023-01-25T02:47:43.205Z,5.80
2023-01-25T02:50:10.523Z,6.53
2023-01-25T02:52:39.070Z,5.82
2023-01-25T02:55:06.233Z,6.82
2023-01-25T02:57:33.137Z,6.30
2023-01-25T02:59:59.465Z,6.40
2023-01-25T03:02:25.852Z,5.47
2023-01-25T03:04:52.433Z,6.70
2023-01-25T03:07:18.846Z,5.28
2023-01-25T03:09:45.331Z,5.70
2023-01-25T03:12:11.853Z,6.78
2023-01-25T03:14:38.454Z,5.45
2023-01-25T03:17:07.461Z,6.25
2023-01-25T03:19:33.980Z,4.95
2023-01-25T03:22:02.909Z,4.43
2023-01-25T03:24:29.489Z,5.05
2023-01-25T03:27:10.898Z,5.03
2023-01-25T03:29:42.762Z,4.90
2023-01-25T03:32:09.293Z,5.20
2023-01-25T03:34:36.200Z,5.13
2023-01-25T03:37:03.310Z,5.30
2023-01-25T03:39:29.693Z,4.68
2023-01-25T03:41:56.185Z,4.50
2023-01-25T03:44:22.616Z,5.68
2023-01-25T03:46:49.123Z,5.63
2023-01-25T03:49:19.229Z,5.25
2023-01-25T03:51:45.702Z,5.93
2023-01-25T03:54:12.242Z,4.78
2023-01-25T03:56:38.953Z,4.22
2023-01-25T03:59:07.803Z,4.47
2023-01-25T04:01:34.234Z,4.75
2023-01-25T04:04:00.713Z,5.00
2023-01-25T04:06:29.872Z,4.43
2023-01-25T04:08:59.547Z,5.18
2023-01-25T04:11:26.307Z,4.35
2023-01-25T04:13:52.664Z,4.25
2023-01-25T04:16:19.197Z,5.07
2023-01-25T04:18:45.677Z,4.50
2023-01-25T04:21:12.020Z,4.25
2023-01-25T04:23:38.378Z,4.18
2023-01-25T04:26:07.848Z,4.82
2023-01-25T04:28:35.380Z,4.75
2023-01-25T04:31:03.673Z,4.65
2023-01-25T04:33:30.533Z,5.85
2023-01-25T04:35:57.599Z,5.55
2023-01-25T04:38:24.513Z,5.18
2023-01-25T04:40:52.241Z,4.93
2023-01-25T04:43:20.841Z,4.38
2023-01-25T04:45:47.634Z,4.45
2023-01-25T04:48:14.495Z,7.10
2023-01-25T04:50:42.419Z,4.90
2023-01-25T04:53:10.778Z,5.18
2023-01-25T04:55:37.406Z,5.13
2023-01-25T04:58:04.630Z,4.80
2023-01-25T05:00:31.365Z,5.10
2023-01-25T05:02:58.161Z,4.50
2023-01-25T05:05:24.595Z,4.40
2023-01-25T05:07:51.031Z,4.63
2023-01-25T05:10:17.523Z,5.28
2023-01-25T05:12:44.130Z,4.85
2023-01-25T05:15:14.216Z,4.68
2023-01-25T05:17:40.727Z,5.00
2023-01-25T05:20:10.677Z,5.05
2023-01-25T05:22:37.173Z,5.15
2023-01-25T05:25:04.217Z,5.20
2023-01-25T05:27:30.593Z,4.20
2023-01-25T05:29:57.744Z,5.18
2023-01-25T05:32:27.353Z,3.92
2023-01-25T05:34:53.839Z,4.45
2023-01-25T05:37:23.293Z,9.02
2023-01-25T05:39:49.657Z,5.45
2023-01-25T05:42:18.283Z,4.72
2023-01-25T05:44:47.332Z,5.45
2023-01-25T05:47:15.472Z,5.32
2023-01-25T05:49:44.592Z,6.03
2023-01-25T05:52:14.642Z,5.63
2023-01-25T05:54:41.217Z,5.43
2023-01-25T05:57:07.843Z,5.68
2023-01-25T05:59:34.204Z,5.38
2023-01-25T06:02:00.792Z,5.18
2023-01-25T06:04:29.837Z,5.72
2023-01-25T06:06:56.481Z,5.80
2023-01-25T06:09:23.852Z,5.25
2023-01-25T06:11:52.945Z,6.38
2023-01-25T06:14:19.502Z,6.00
2023-01-25T06:16:46.078Z,6.35
2023-01-25T06:19:13.897Z,7.10
2023-01-25T06:21:40.481Z,7.03
2023-01-25T06:24:07.379Z,7.50
2023-01-25T06:26:33.919Z,6.38
2023-01-25T06:29:00.282Z,6.32
2023-01-25T06:31:26.813Z,6.88
2023-01-25T06:33:53.406Z,6.78
2023-01-25T06:36:23.045Z,6.80
2023-01-25T06:38:51.570Z,7.45
2023-01-25T06:41:19.366Z,6.43
2023-01-25T06:43:47.770Z,6.38
2023-01-25T06:46:17.309Z,7.30
2023-01-25T06:48:43.856Z,6.85
2023-01-25T06:51:12.542Z,7.03
2023-01-25T06:53:44.655Z,6.57
2023-01-25T06:56:18.250Z,7.35
2023-01-25T06:58:45.688Z,6.85
2023-01-25T07:01:16.274Z,7.40
2023-01-25T07:03:43.064Z,7.88
2023-01-25T07:06:11.096Z,7.93
2023-01-25T07:08:38.248Z,7.30
2023-01-25T07:11:09.368Z,7.95
2023-01-25T07:13:36.595Z,8.77
2023-01-25T07:16:09.167Z,7.90
2023-01-25T07:18:38.231Z,7.75
2023-01-25T07:21:22.750Z,8.25
2023-01-25T07:23:50.923Z,6.13
2023-01-25T07:26:25.370Z,6.90
2023-01-25T07:28:53.249Z,6.20
2023-01-25T07:31:20.849Z,6.18
2023-01-25T07:33:51.440Z,6.15
2023-01-25T07:36:18.404Z,6.28
2023-01-25T07:38:45.084Z,6.53
2023-01-25T07:41:16.297Z,6.63
2023-01-25T07:43:50.177Z,6.30
2023-01-25T07:46:17.155Z,7.30
2023-01-25T07:48:48.838Z,7.30
2023-01-25T07:51:27.868Z,7.88
2023-01-25T07:53:59.871Z,6.65
2023-01-25T07:56:29.481Z,7.28
2023-01-25T07:58:57.485Z,5.93
2023-01-25T08:01:26.755Z,5.65
2023-01-25T08:03:57.300Z,6.57
2023-01-25T08:06:35.895Z,7.20
2023-01-25T08:09:14.803Z,7.45
2023-01-25T08:11:42.137Z,6.93
2023-01-25T08:14:11.510Z,7.05
2023-01-25T08:16:38.053Z,7.40
2023-01-25T08:19:04.995Z,7.43
2023-01-25T08:21:34.318Z,6.40
2023-01-25T08:24:08.359Z,8.02
2023-01-25T08:26:35.995Z,7.03
2023-01-25T08:29:02.868Z,7.70
2023-01-25T08:31:31.923Z,7.35
2023-01-25T08:33:59.384Z,11.55
2023-01-25T08:36:27.983Z,6.95
2023-01-25T08:39:05.281Z,7.75
2023-01-25T08:41:33.495Z,6.70
2023-01-25T08:44:00.273Z,7.05
2023-01-25T08:46:31.337Z,6.63
2023-01-25T08:48:59.975Z,5.93
2023-01-25T08:51:27.386Z,6.95
2023-01-25T08:53:54.056Z,6.75
2023-01-25T08:56:21.347Z,5.82
2023-01-25T08:58:49.330Z,5.57
2023-01-25T09:01:19.035Z,6.47
2023-01-25T09:03:48.166Z,6.45
2023-01-25T09:06:15.081Z,6.50
2023-01-25T09:08:41.973Z,6.43
2023-01-25T09:11:11.638Z,6.47
2023-01-25T09:13:38.101Z,7.18
2023-01-25T09:16:09.910Z,7.07
2023-01-25T09:18:38.453Z,6.07
2023-01-25T09:21:18.944Z,6.07
2023-01-25T09:24:05.098Z,5.22
2023-01-25T09:26:45.922Z,5.63
2023-01-25T09:29:18.875Z,5.38
2023-01-25T09:31:45.461Z,4.93
2023-01-25T09:34:13.442Z,6.13
2023-01-25T09:36:40.224Z,5.53
2023-01-25T09:39:06.733Z,5.80
2023-01-25T09:41:42.380Z,6.55
2023-01-25T09:44:16.804Z,4.65
2023-01-25T09:46:52.860Z,5.78
2023-01-25T09:49:55.138Z,6.05
2023-01-25T09:52:48.241Z,7.07
2023-01-25T09:55:18.343Z,5.22
2023-01-25T09:57:46.639Z,5.90
2023-01-25T10:00:34.110Z,5.82
2023-01-25T10:03:16.155Z,5.30
2023-01-25T10:05:49.115Z,6.90
2023-01-25T10:08:25.741Z,4.55
2023-01-25T10:10:59.819Z,5.10
2023-01-25T10:13:31.669Z,5.10
2023-01-25T10:16:25.046Z,4.60
2023-01-25T10:19:25.999Z,4.93
2023-01-25T10:21:59.482Z,4.32
2023-01-25T10:24:46.576Z,4.25
2023-01-25T10:27:29.744Z,4.22
2023-01-25T10:29:59.888Z,5.35
2023-01-25T10:32:32.015Z,5.93
2023-01-25T10:35:12.585Z,6.85
2023-01-25T10:37:46.035Z,6.30
2023-01-25T10:40:12.533Z,7.13
2023-01-25T10:42:49.013Z,6.03
2023-01-25T10:45:16.914Z,5.68
2023-01-25T10:47:54.878Z,5.90
2023-01-25T10:50:42.897Z,5.15
2023-01-25T10:53:27.495Z,5.07
2023-01-25T10:56:02.429Z,5.30
2023-01-25T10:58:35.309Z,5.88
2023-01-25T11:01:02.667Z,4.68
2023-01-25T11:03:48.773Z,5.10
2023-01-25T11:06:30.686Z,4.35
2023-01-25T11:08:57.264Z,6.03
2023-01-25T11:11:32.755Z,4.63
2023-01-25T11:13:59.335Z,6.10
2023-01-25T11:16:33.258Z,6.45
2023-01-25T11:19:04.219Z,5.95
2023-01-25T11:21:35.560Z,5.68
2023-01-25T11:24:07.156Z,6.07
2023-01-25T11:26:39.868Z,5.40
2023-01-25T11:29:14.070Z,4.72
2023-01-25T11:31:46.169Z,5.88
2023-01-25T11:34:16.387Z,6.75
2023-01-25T11:37:01.187Z,5.97
2023-01-25T11:39:42.680Z,5.38
2023-01-25T11:42:42.699Z,6.32
2023-01-25T11:45:09.401Z,6.45
2023-01-25T11:47:40.926Z,6.85
2023-01-25T11:50:12.793Z,6.23
2023-01-25T11:53:03.021Z,6.80
2023-01-25T11:55:42.346Z,6.00
2023-01-25T11:58:24.157Z,6.25
2023-01-25T12:01:14.750Z,6.97
2023-01-25T12:03:57.568Z,5.50
2023-01-25T12:07:05.984Z,6.22
2023-01-25T12:09:47.833Z,5.75
2023-01-25T12:12:20.722Z,6.05
2023-01-25T12:15:02.430Z,6.25
2023-01-25T12:17:53.025Z,5.97
2023-01-25T12:20:34.167Z,6.68
2023-01-25T12:23:39.263Z,5.88
2023-01-25T12:26:17.660Z,5.95
2023-01-25T12:29:03.738Z,6.30
2023-01-25T12:31:47.057Z,6.75
2023-01-25T12:34:25.416Z,6.47
2023-01-25T12:36:54.942Z,5.57
2023-01-25T12:39:35.107Z,6.28
2023-01-25T12:42:24.266Z,6.00
2023-01-25T12:45:05.089Z,7.07
2023-01-25T12:47:44.104Z,5.78
2023-01-25T12:50:48.984Z,6.60
2023-01-25T12:53:22.055Z,6.40
2023-01-25T12:55:49.824Z,5.70
2023-01-25T12:58:37.794Z,6.18
2023-01-25T13:01:35.370Z,9.18
2023-01-25T13:04:23.420Z,8.90
2023-01-25T13:07:07.891Z,7.57
2023-01-25T13:09:58.979Z,5.60
2023-01-25T13:12:26.026Z,7.53
2023-01-25T13:14:53.065Z,7.45
2023-01-25T13:17:34.904Z,7.00
2023-01-25T13:20:08.853Z,6.90
2023-01-25T13:22:59.810Z,7.35
2023-01-25T13:25:29.772Z,6.53
2023-01-25T13:28:53.562Z,6.38
2023-01-25T13:31:51.075Z,6.05
2023-01-25T13:34:40.158Z,7.63
2023-01-25T13:37:24.027Z,6.95
2023-01-25T13:40:06.870Z,7.35
2023-01-25T13:42:35.221Z,6.18
2023-01-25T13:45:13.318Z,7.32
2023-01-25T13:47:43.195Z,6.57
2023-01-25T13:50:18.798Z,7.75
2023-01-25T13:53:01.822Z,7.60
2023-01-25T13:55:32.476Z,6.72
2023-01-25T13:58:30.587Z,6.70
2023-01-25T14:00:59.957Z,7.25
2023-01-25T14:03:31.397Z,6.78
2023-01-25T14:06:00.559Z,7.85
2023-01-25T14:08:28.079Z,6.93
2023-01-25T14:10:58.284Z,7.85
2023-01-25T14:13:24.978Z,6.75
2023-01-25T14:15:56.906Z,6.43
2023-01-25T14:18:30.131Z,7.30
2023-01-25T14:21:16.076Z,6.93
2023-01-25T14:23:45.442Z,6.95
2023-01-25T14:26:26.236Z,6.68
2023-01-25T14:29:01.408Z,6.80
2023-01-25T14:31:34.617Z,7.07
2023-01-25T14:34:04.310Z,6.13
2023-01-25T14:36:34.225Z,7.28
2023-01-25T14:39:02.521Z,6.43
2023-01-25T14:41:33.999Z,5.70
2023-01-25T14:44:12.538Z,7.70
2023-01-25T14:46:40.599Z,6.07
2023-01-25T14:49:08.311Z,6.72
2023-01-25T14:51:41.502Z,6.95
2023-01-25T14:54:16.896Z,6.53
2023-01-25T14:56:46.883Z,6.80
2023-01-25T14:59:31.341Z,7.43
2023-01-25T15:02:02.483Z,9.32
2023-01-25T15:04:29.717Z,14.32
2023-01-25T15:06:59.132Z,7.47
2023-01-25T15:09:44.888Z,8.13
2023-01-25T15:12:16.983Z,7.90
2023-01-25T15:14:51.781Z,7.93
2023-01-25T15:17:57.202Z,8.27
2023-01-25T15:20:36.642Z,6.38
2023-01-25T15:23:24.986Z,6.78
2023-01-25T15:25:56.777Z,6.97
2023-01-25T15:28:26.017Z,9.65
2023-01-25T15:30:57.571Z,8.00
2023-01-25T15:33:27.029Z,7.07
2023-01-25T15:35:53.813Z,7.97
2023-01-25T15:38:21.965Z,8.32
2023-01-25T15:40:49.129Z,7.35
2023-01-25T15:43:17.391Z,7.28
2023-01-25T15:45:46.526Z,7.00
2023-01-25T15:48:18.837Z,7.50
2023-01-25T15:50:45.389Z,6.70
2023-01-25T15:53:16.163Z,7.43
2023-01-25T15:55:48.520Z,7.55
2023-01-25T15:58:40.331Z,8.18
2023-01-25T16:01:07.113Z,8.60
2023-01-25T16:03:36.447Z,8.73
2023-01-25T16:06:26.384Z,9.95
2023-01-25T16:08:53.025Z,8.77
2023-01-25T16:11:22.349Z,9.63
2023-01-25T16:13:49.678Z,10.32
2023-01-25T16:16:24.619Z,8.85
2023-01-25T16:18:51.443Z,9.52
2023-01-25T16:21:18.047Z,9.52
2023-01-25T16:23:44.420Z,8.88
2023-01-25T16:26:28.765Z,9.32
2023-01-25T16:28:55.448Z,10.27
2023-01-25T16:31:32.397Z,9.57
2023-01-25T16:34:00.368Z,9.95
2023-01-25T16:36:26.857Z,10.80
2023-01-25T16:38:53.333Z,9.20
2023-01-25T16:41:19.824Z,9.25
2023-01-25T16:43:47.927Z,9.77
2023-01-25T16:46:24.051Z,10.13
2023-01-25T16:48:52.401Z,10.23
2023-01-25T16:51:22.262Z,9.55
2023-01-25T16:53:50.314Z,52.13
2023-01-25T16:56:20.528Z,19.13
2023-01-25T16:58:53.256Z,17.70
2023-01-25T17:01:21.914Z,11.88
2023-01-25T17:03:51.543Z,12.40
2023-01-25T17:06:26.749Z,10.27
2023-01-25T17:08:56.303Z,9.07
2023-01-25T17:11:23.296Z,9.50
2023-01-25T17:13:51.401Z,9.52
2023-01-25T17:16:18.855Z,9.88
2023-01-25T17:18:45.969Z,10.68
2023-01-25T17:21:14.637Z,11.20
2023-01-25T17:23:44.273Z,11.70
2023-01-25T17:26:16.407Z,12.48
2023-01-25T17:28:43.966Z,12.57
2023-01-25T17:31:30.852Z,10.45
2023-01-25T17:34:00.463Z,12.90
2023-01-25T17:36:27.131Z,11.52
2023-01-25T17:38:54.201Z,12.90
2023-01-25T17:41:23.309Z,12.05
2023-01-25T17:43:55.385Z,12.70
2023-01-25T17:46:22.160Z,11.60
2023-01-25T17:48:48.581Z,12.07
2023-01-25T17:51:15.260Z,12.48
2023-01-25T17:53:44.348Z,13.48
2023-01-25T17:56:12.879Z,13.48
2023-01-25T17:58:41.194Z,13.13
2023-01-25T18:01:14.586Z,13.80
2023-01-25T18:03:43.199Z,12.05
2023-01-25T18:06:12.070Z,13.32
2023-01-25T18:08:46.477Z,13.43
2023-01-25T18:11:15.738Z,14.38
2023-01-25T18:13:45.531Z,13.55
2023-01-25T18:16:15.439Z,12.32
2023-01-25T18:18:45.586Z,12.45
2023-01-25T18:21:22.186Z,12.10
2023-01-25T18:23:48.856Z,13.27
2023-01-25T18:26:23.758Z,13.02
2023-01-25T18:28:52.098Z,14.02
2023-01-25T18:31:21.576Z,12.55
2023-01-25T18:33:52.644Z,11.07
2023-01-25T18:36:20.381Z,12.85
2023-01-25T18:38:47.579Z,13.40
2023-01-25T18:41:15.334Z,14.43
2023-01-25T18:43:41.958Z,16.95
2023-01-25T18:46:11.501Z,17.33
2023-01-25T18:48:38.502Z,17.42
2023-01-25T18:51:11.270Z,17.27
2023-01-25T18:53:44.495Z,12.82
2023-01-25T18:56:19.211Z,13.23
2023-01-25T18:58:50.298Z,13.45
2023-01-25T19:04:01.866Z,14.88
2023-01-25T19:06:28.338Z,15.75
2023-01-25T19:08:56.453Z,11.02
2023-01-25T19:11:24.004Z,21.95
2023-01-25T19:13:55.039Z,20.80
2023-01-25T19:16:24.465Z,21.58
2023-01-25T19:18:55.002Z,20.88
2023-01-25T19:21:26.628Z,18.33
2023-01-25T19:23:54.176Z,15.27
2023-01-25T19:26:22.167Z,15.15
2023-01-25T19:28:48.589Z,13.30
2023-01-25T19:31:17.731Z,11.30
2023-01-25T19:33:47.190Z,11.73
2023-01-25T19:36:20.907Z,11.38
2023-01-25T19:38:48.786Z,11.90
2023-01-25T19:41:20.529Z,10.75
2023-01-25T19:43:56.522Z,13.80
2023-01-25T19:46:26.729Z,14.77
2023-01-25T19:48:54.409Z,14.65
2023-01-25T19:51:29.997Z,12.82
2023-01-25T19:54:07.140Z,12.70
2023-01-25T19:56:36.658Z,13.90
2023-01-25T19:59:07.391Z,16.25
2023-01-25T20:01:37.521Z,12.07
2023-01-25T20:04:10.623Z,11.40
2023-01-25T20:06:37.041Z,10.05
2023-01-25T20:09:04.328Z,11.50
2023-01-25T20:11:32.833Z,10.77
2023-01-25T20:14:02.796Z,11.10
2023-01-25T20:16:33.542Z,11.07
2023-01-25T20:19:01.290Z,11.70
2023-01-25T20:21:32.146Z,12.20
2023-01-25T20:24:04.539Z,10.75
2023-01-25T20:29:02.503Z,9.38
2023-01-25T20:31:33.818Z,10.07
2023-01-25T20:34:10.721Z,10.88
2023-01-25T20:36:45.362Z,11.35
2023-01-25T20:39:25.680Z,10.90
2023-01-25T20:41:53.570Z,11.23
2023-01-25T20:44:22.592Z,11.43
2023-01-25T20:46:51.680Z,10.82
2023-01-25T20:49:18.701Z,12.13
2023-01-25T20:51:46.286Z,11.50
2023-01-25T20:54:16.609Z,11.45
2023-01-25T20:56:47.988Z,10.30
2023-01-25T20:59:16.586Z,11.30
2023-01-25T21:01:43.210Z,9.68
2023-01-25T21:04:11.472Z,11.95
2023-01-25T21:06:38.617Z,11.63
2023-01-25T21:09:05.355Z,10.85
2023-01-25T21:11:32.673Z,11.05
2023-01-25T21:13:59.587Z,10.43
2023-01-25T21:16:26.584Z,12.20
2023-01-25T21:18:55.493Z,10.85
2023-01-25T21:21:25.704Z,10.23
2023-01-25T21:23:57.616Z,10.63
2023-01-25T21:26:31.638Z,11.77
2023-01-25T21:29:04.460Z,10.90
2023-01-25T21:31:51.603Z,11.50
2023-01-25T21:34:18.422Z,10.60
2023-01-25T21:36:50.263Z,12.45
2023-01-25T21:39:16.680Z,11.93
2023-01-25T21:41:43.106Z,10.27
2023-01-25T21:44:28.467Z,10.73
2023-01-25T21:49:59.823Z,9.57
2023-01-25T21:52:26.244Z,11.02
2023-01-25T21:54:52.681Z,12.13
2023-01-25T21:57:19.123Z,10.85
2023-01-25T21:59:45.579Z,12.98
2023-01-25T22:02:14.412Z,11.07
2023-01-25T22:04:41.012Z,11.00
2023-01-25T22:07:08.837Z,10.25
2023-01-25T22:09:35.341Z,11.55
2023-01-25T22:12:02.010Z,12.20
2023-01-25T22:14:28.869Z,11.50
2023-01-25T22:16:58.011Z,12.90
2023-01-25T22:19:24.538Z,11.40
2023-01-25T22:21:51.208Z,12.13
2023-01-25T22:24:17.639Z,13.50
2023-01-25T22:26:44.090Z,13.25
2023-01-25T22:29:14.047Z,14.93
2023-01-25T22:31:41.397Z,14.75
2023-01-25T22:34:08.006Z,14.27
2023-01-25T22:36:34.934Z,14.63
2023-01-25T22:39:01.377Z,13.75
2023-01-25T22:41:30.189Z,12.63
2023-01-25T22:43:57.179Z,13.93
2023-01-25T22:46:28.179Z,14.55
2023-01-25T22:48:56.901Z,14.80
2023-01-25T22:51:27.254Z,12.85
2023-01-25T22:53:55.275Z,14.98
2023-01-25T22:56:24.731Z,16.15
2023-01-25T22:58:52.059Z,14.80
2023-01-25T23:01:27.348Z,15.15
2023-01-25T23:03:57.154Z,15.43
2023-01-25T23:06:26.359Z,13.63
2023-01-25T23:08:57.727Z,13.98
2023-01-25T23:11:32.226Z,14.65
2023-01-25T23:14:18.104Z,14.95
2023-01-25T23:16:46.875Z,13.85
2023-01-25T23:19:14.148Z,15.15
2023-01-25T23:21:41.309Z,16.05
2023-01-25T23:24:09.241Z,15.45
2023-01-25T23:26:39.448Z,15.07
2023-01-25T23:29:11.800Z,14.02
2023-01-25T23:31:40.605Z,14.60
2023-01-25T23:34:07.199Z,13.52
2023-01-25T23:36:38.592Z,13.93
2023-01-25T23:39:07.875Z,15.82
2023-01-25T23:41:34.224Z,14.80
2023-01-25T23:44:00.882Z,14.95
2023-01-25T23:46:30.172Z,14.30
2023-01-25T23:48:56.902Z,14.18
2023-01-25T23:51:25.981Z,15.35
2023-01-25T23:53:53.446Z,13.77
2023-01-25T23:56:21.734Z,14.73
2023-01-25T23:58:50.084Z,15.98
